Time;durP1;ratioP1;P1;durP2;ratioP2;P2;SDS_P1;SDS_P2;PMS_P1;PMS_P2;Temp;Humidity;BMP_temperature;BMP_pressure;BME280_temperature;BME280_humidity;BME280_pressure;Samples;Min_cycle;Max_cycle;Signal;HPM_P1;HPM_P2
2022/02/01 00:13:50;;;;;;;134.40;50.75;;;;;;;-0.45;87.28;98056.05;4218903;83;21123;-93
2022/02/01 00:20:37;;;;;;;133.30;53.28;;;;;;;-0.40;87.44;98064.48;4163740;83;21570;-93
2022/02/01 00:45:36;;;;;;;128.30;50.15;;;;;;;-0.29;88.29;98068.36;4196585;83;21084;-93
2022/02/01 00:51:39;;;;;;;126.22;48.02;;;;;;;-0.41;88.67;98079.81;4192458;83;21158;-94
2022/02/01 00:58:11;;;;;;;132.50;49.80;;;;;;;-0.41;88.67;98079.81;4194170;83;21096;-93
2022/02/01 01:10:54;;;;;;;89.53;35.90;;;;;;;-0.45;88.63;98078.91;4229419;83;21084;-93
2022/02/01 01:55:31;;;;;;;145.77;55.33;;;;;;;-0.30;90.02;98107.14;4237505;82;21161;-93
2022/02/01 02:01:36;;;;;;;152.97;59.20;;;;;;;-0.37;90.36;98091.52;4206932;82;21603;-95
2022/02/01 02:07:37;;;;;;;158.18;59.90;;;;;;;-0.37;90.36;98091.52;4220097;83;21140;-93
2022/02/01 02:20:15;;;;;;;142.50;60.17;;;;;;;-0.32;90.23;98114.73;4200388;83;21062;-93
2022/02/01 02:26:29;;;;;;;154.00;63.58;;;;;;;-0.24;90.44;98137.56;4200829;83;21050;-93
2022/02/01 02:32:34;;;;;;;155.70;62.27;;;;;;;-0.23;90.42;98124.33;4162071;83;21101;-93
2022/02/01 02:51:08;;;;;;;147.32;61.70;;;;;;;-0.19;90.67;98150.03;4203234;82;22042;-93
2022/02/01 02:57:10;;;;;;;154.82;60.90;;;;;;;-0.21;91.00;98173.77;4215800;82;21885;-93
2022/02/01 03:03:15;;;;;;;155.67;60.15;;;;;;;-0.22;91.07;98180.27;4222423;83;21078;-93
2022/02/01 03:09:21;;;;;;;137.45;58.13;;;;;;;-0.22;91.26;98190.45;4233667;82;20985;-94
2022/02/01 03:21:33;;;;;;;149.50;57.93;;;;;;;-0.24;91.37;98210.73;4099151;85;21165;-94
2022/02/01 03:34:04;;;;;;;152.10;60.48;;;;;;;-0.26;91.37;98215.09;4184795;82;21101;-94
2022/02/01 03:40:09;;;;;;;151.90;62.33;;;;;;;-0.25;91.59;98234.13;4211045;82;21576;-94
2022/02/01 03:47:06;;;;;;;140.47;56.58;;;;;;;-0.26;91.58;98229.08;4193463;83;21098;-94
2022/02/01 03:53:06;;;;;;;141.15;59.95;;;;;;;-0.25;91.67;98227.41;4164899;82;21610;-93
2022/02/01 03:59:16;;;;;;;159.22;60.43;;;;;;;-0.25;91.70;98235.48;4089026;85;21114;-93
2022/02/01 04:05:17;;;;;;;149.38;59.48;;;;;;;-0.24;91.67;98230.91;4172794;83;21055;-93
2022/02/01 04:11:20;;;;;;;150.22;55.45;;;;;;;-0.24;91.71;98234.94;4165133;83;21071;-94
2022/02/01 04:17:26;;;;;;;147.60;59.20;;;;;;;-0.26;91.42;98229.08;4168433;83;21024;-93
2022/02/01 04:23:28;;;;;;;145.12;55.43;;;;;;;-0.28;91.59;98241.51;4183251;83;21051;-93
2022/02/01 04:29:53;;;;;;;140.85;58.80;;;;;;;-0.30;91.54;98216.83;4194459;82;21136;-93
2022/02/01 04:35:50;;;;;;;144.65;58.92;;;;;;;-0.27;91.87;98230.97;4175260;82;21653;-93
2022/02/01 04:41:53;;;;;;;152.68;58.42;;;;;;;-0.26;92.00;98235.80;4143190;84;21098;-94
2022/02/01 04:48:02;;;;;;;128.27;52.17;;;;;;;-0.28;91.99;98258.98;4169283;84;21018;-93
2022/02/01 04:54:04;;;;;;;134.15;53.38;;;;;;;-0.35;91.96;98260.60;4222569;83;21069;-93
2022/02/01 05:00:28;;;;;;;122.75;49.93;;;;;;;-0.56;91.94;98244.37;4221397;83;21130;-94
2022/02/01 05:33:03;;;;;;;126.85;51.90;;;;;;;-0.50;92.65;98314.91;4152966;83;21102;-93
2022/02/01 05:39:29;;;;;;;115.97;43.68;;;;;;;-0.50;92.62;98303.58;4140306;83;21054;-94
2022/02/01 05:45:46;;;;;;;124.57;47.67;;;;;;;-0.45;92.59;98323.58;4089831;85;21136;-94
2022/02/01 05:51:53;;;;;;;114.67;46.88;;;;;;;-0.48;92.85;98331.48;4153962;84;21141;-93
2022/02/01 06:04:34;;;;;;;105.95;43.63;;;;;;;-0.50;92.82;98336.41;4170626;82;21036;-93
2022/02/01 06:10:52;;;;;;;125.20;50.40;;;;;;;-0.54;92.86;98332.77;4156123;82;21663;-94
2022/02/01 06:17:03;;;;;;;131.10;51.17;;;;;;;-0.58;92.99;98352.00;4129592;81;21088;-94
2022/02/01 06:23:20;;;;;;;124.02;46.33;;;;;;;-0.62;93.08;98352.38;4174009;83;21561;-94
2022/02/01 06:29:43;;;;;;;110.25;45.35;;;;;;;-0.63;93.16;98366.94;4178400;83;21118;-94
2022/02/01 06:35:56;;;;;;;136.20;52.45;;;;;;;-0.65;93.17;98375.31;4170229;83;21586;-94
2022/02/01 06:42:20;;;;;;;129.60;51.65;;;;;;;-0.61;93.29;98396.41;4073397;83;21107;-94
2022/02/01 07:02:03;;;;;;;108.80;45.15;;;;;;;-0.58;93.90;98393.09;4180131;82;21600;-94
2022/02/01 07:15:07;;;;;;;116.00;42.00;;;;;;;-0.41;93.47;98405.75;4172058;83;21138;-94
2022/02/01 07:21:29;;;;;;;102.82;39.70;;;;;;;-0.41;93.47;98405.75;4109377;83;21188;-94
2022/02/01 07:27:56;;;;;;;99.47;40.17;;;;;;;-0.22;93.44;98425.81;4170249;83;21086;-94
2022/02/01 07:33:57;;;;;;;108.52;37.80;;;;;;;-0.15;93.02;98440.13;4240074;81;21138;-94
2022/02/01 07:46:38;;;;;;;85.12;33.42;;;;;;;-0.14;93.12;98442.50;4107162;85;21050;-93
2022/02/01 07:59:40;;;;;;;81.55;32.63;;;;;;;-0.13;93.29;98465.62;4237981;81;21082;-94
2022/02/01 08:19:02;;;;;;;67.42;24.37;;;;;;;-0.01;93.25;98456.34;4222096;81;21645;-93
2022/02/01 08:25:01;;;;;;;72.17;26.20;;;;;;;0.01;92.68;98466.79;4220994;81;21101;-94
2022/02/01 08:31:11;;;;;;;64.77;24.25;;;;;;;0.03;92.64;98468.04;4130597;84;21136;-93
2022/02/01 08:37:17;;;;;;;71.75;26.73;;;;;;;0.12;92.76;98462.66;4167995;83;21538;-94
2022/02/01 08:43:19;;;;;;;54.53;22.50;;;;;;;0.42;93.20;98475.11;4129799;84;21009;-92
2022/02/01 08:49:23;;;;;;;80.15;29.72;;;;;;;0.66;92.79;98461.09;4193080;83;21570;-92
2022/02/01 08:55:34;;;;;;;60.03;24.60;;;;;;;0.79;92.53;98446.05;4115033;84;21117;-93
2022/02/01 09:01:35;;;;;;;63.98;26.75;;;;;;;0.89;92.27;98458.36;4070804;84;21129;-92
2022/02/01 09:07:37;;;;;;;68.92;25.32;;;;;;;0.89;92.04;98462.41;4094414;84;21095;-93
2022/02/01 09:13:39;;;;;;;75.97;28.47;;;;;;;0.91;91.77;98473.08;4194766;83;21087;-92
2022/02/01 09:19:49;;;;;;;68.97;23.52;;;;;;;0.87;91.72;98470.02;4086341;84;21086;-92
2022/02/01 09:25:52;;;;;;;66.45;25.32;;;;;;;1.01;91.64;98471.93;4195966;83;21070;-92
2022/02/01 09:31:56;;;;;;;64.27;25.37;;;;;;;1.00;91.14;98460.92;4177124;84;21012;-92
2022/02/01 09:37:58;;;;;;;70.03;22.80;;;;;;;1.02;91.42;98468.11;4184760;83;21675;-93
2022/02/01 09:44:02;;;;;;;56.48;22.25;;;;;;;1.10;91.39;98472.12;4141729;83;21058;-93
2022/02/01 09:50:06;;;;;;;56.80;22.42;;;;;;;2.20;91.85;98483.75;4145218;83;21109;-92
2022/02/01 09:56:11;;;;;;;53.25;21.73;;;;;;;2.47;90.30;98485.88;4139710;83;21052;-93
2022/02/01 10:02:15;;;;;;;57.93;22.10;;;;;;;2.22;89.93;98465.31;4127414;83;21606;-93
2022/02/01 10:08:27;;;;;;;52.67;21.15;;;;;;;2.36;90.15;98465.25;4151377;83;21097;-91
2022/02/01 10:14:39;;;;;;;44.33;19.70;;;;;;;2.64;89.96;98449.20;4111029;84;22020;-93
2022/02/01 10:20:43;;;;;;;46.48;20.52;;;;;;;2.85;89.13;98461.48;4090526;85;21095;-92
2022/02/01 10:26:50;;;;;;;42.45;16.90;;;;;;;2.95;88.72;98463.77;4123879;84;21094;-92
2022/02/01 10:38:56;;;;;;;40.10;14.50;;;;;;;2.51;86.25;98467.30;4111077;83;21085;-93
2022/02/01 10:45:00;;;;;;;32.05;13.38;;;;;;;2.22;84.84;98463.41;4114398;83;21095;-94
2022/02/01 10:51:19;;;;;;;42.38;14.25;;;;;;;2.12;84.50;98460.31;4160592;83;21102;-93
2022/02/01 10:57:24;;;;;;;36.63;14.73;;;;;;;2.05;85.05;98456.03;4160252;83;21094;-93
2022/02/01 11:03:28;;;;;;;38.45;14.87;;;;;;;2.18;85.27;98440.08;4143964;83;21486;-93
2022/02/01 11:09:34;;;;;;;40.80;15.83;;;;;;;2.18;84.75;98429.28;4183346;83;21090;-93
2022/02/01 11:15:36;;;;;;;45.70;17.80;;;;;;;2.14;83.75;98427.83;4055138;86;21603;-92
2022/02/01 11:21:52;;;;;;;35.65;14.40;;;;;;;2.09;83.98;98418.59;4135224;83;21122;-92
2022/02/01 11:34:16;;;;;;;39.88;15.28;;;;;;;2.02;83.05;98427.00;4165731;83;21555;-92
2022/02/01 11:40:19;;;;;;;43.20;19.17;;;;;;;1.96;82.74;98416.19;4155589;83;21090;-93
2022/02/01 11:46:21;;;;;;;44.65;18.42;;;;;;;1.93;82.85;98400.08;4149642;83;21113;-93
2022/02/01 11:52:27;;;;;;;53.42;22.85;;;;;;;1.96;82.48;98401.34;4101216;84;21117;-92
2022/02/01 11:58:47;;;;;;;46.15;17.65;;;;;;;1.91;82.80;98396.91;4128997;84;21553;-93
2022/02/01 12:04:48;;;;;;;41.85;15.88;;;;;;;1.89;82.41;98395.68;4070826;85;21115;-92
2022/02/01 12:10:53;;;;;;;34.95;12.82;;;;;;;1.80;82.45;98382.84;4075253;85;21083;-92
2022/02/01 12:16:58;;;;;;;37.13;14.83;;;;;;;1.70;81.05;98381.89;4090242;85;21098;-92
2022/02/01 12:23:24;;;;;;;34.55;15.00;;;;;;;1.53;82.24;98378.80;4177792;83;21716;-94
2022/02/01 12:29:26;;;;;;;32.48;13.50;;;;;;;1.44;81.63;98373.45;4225589;82;21123;-90
2022/02/01 12:35:35;;;;;;;38.42;15.90;;;;;;;1.39;82.12;98364.22;4269049;79;21625;-92
2022/02/01 12:41:54;;;;;;;43.08;16.23;;;;;;;1.28;81.86;98356.33;4279011;81;21095;-90
2022/02/01 12:48:03;;;;;;;40.35;15.83;;;;;;;1.21;82.01;98349.86;4197931;82;21080;-91
2022/02/01 12:54:04;;;;;;;38.17;14.58;;;;;;;1.23;82.44;98337.64;4187770;82;21549;-90
2022/02/01 13:00:17;;;;;;;35.15;15.05;;;;;;;1.22;81.93;98337.97;4208605;82;21552;-90
2022/02/01 13:06:19;;;;;;;34.15;14.43;;;;;;;1.22;82.37;98325.27;4128275;84;22294;-90
2022/02/01 13:24:45;;;;;;;36.77;16.50;;;;;;;1.31;82.62;98294.19;4156611;82;22211;-90
2022/02/01 13:30:47;;;;;;;35.83;15.60;;;;;;;1.43;82.87;98301.77;4144093;82;21086;-94
2022/02/01 13:36:54;;;;;;;35.30;14.93;;;;;;;1.51;82.60;98286.06;4178841;81;126148;-90
2022/02/01 13:42:57;;;;;;;38.90;15.38;;;;;;;1.60;82.75;98273.27;4204684;82;22061;-90
2022/02/01 13:49:04;;;;;;;42.93;17.37;;;;;;;1.73;82.87;98260.59;4182516;82;21047;-91
2022/02/01 13:55:21;;;;;;;32.67;13.25;;;;;;;1.86;82.77;98256.80;4206976;82;21059;-90
2022/02/01 14:01:23;;;;;;;32.48;15.35;;;;;;;1.90;82.37;98242.85;4201008;82;21078;-92
2022/02/01 14:07:51;;;;;;;30.52;13.53;;;;;;;1.92;82.27;98222.27;4194504;83;21113;-90
2022/02/01 14:25:52;;;;;;;25.62;12.35;;;;;;;1.97;81.84;98182.36;4180138;82;21053;-91
2022/02/01 14:32:06;;;;;;;26.10;11.10;;;;;;;2.02;81.75;98170.55;4180009;83;21070;-90
2022/02/01 14:38:07;;;;;;;21.65;10.55;;;;;;;2.10;81.96;98157.50;4252136;82;21285;-91
2022/02/01 14:50:20;;;;;;;19.25;9.08;;;;;;;2.05;79.02;98142.29;4204496;82;21130;-91
2022/02/01 14:56:26;;;;;;;23.90;9.68;;;;;;;1.91;79.80;98149.19;4195152;83;21184;-91
2022/02/01 15:15:06;;;;;;;22.32;9.15;;;;;;;1.77;79.90;98142.77;4011829;86;21648;-91
2022/02/01 15:21:07;;;;;;;21.07;9.25;;;;;;;1.74;79.79;98146.72;4003528;86;21196;-89
2022/02/01 15:27:09;;;;;;;21.50;9.68;;;;;;;1.74;79.04;98138.63;4081618;84;21066;-90
2022/02/01 15:33:12;;;;;;;29.42;12.33;;;;;;;1.69;80.02;98128.84;4210129;82;21070;-90
2022/02/01 15:58:16;;;;;;;31.75;15.30;;;;;;;1.37;81.38;98147.24;4188750;82;21029;-91
2022/02/01 16:04:20;;;;;;;28.00;14.53;;;;;;;1.23;81.74;98126.00;4217967;81;21071;-90
2022/02/01 16:10:39;;;;;;;22.67;11.83;;;;;;;1.12;82.13;98119.47;4212385;82;21117;-91
2022/02/01 16:16:38;;;;;;;24.72;12.78;;;;;;;1.01;82.44;98117.52;4177511;81;21807;-89
2022/02/01 16:22:40;;;;;;;25.57;11.60;;;;;;;0.93;82.83;98107.61;4093380;84;21074;-89
2022/02/01 16:28:41;;;;;;;21.73;11.80;;;;;;;0.86;82.95;98105.45;4210300;82;21752;-92
2022/02/01 16:34:43;;;;;;;26.50;11.95;;;;;;;0.83;82.79;98074.38;4199967;82;21079;-90
2022/02/01 16:40:45;;;;;;;24.70;12.03;;;;;;;0.75;82.85;98059.85;4201623;82;21081;-90
2022/02/01 16:46:46;;;;;;;22.90;11.00;;;;;;;0.72;82.86;98055.72;4167452;82;21123;-90
2022/02/01 16:52:51;;;;;;;22.55;12.07;;;;;;;0.69;82.73;98037.53;4180670;82;21046;-89
2022/02/01 16:58:55;;;;;;;21.30;10.68;;;;;;;0.60;82.69;98025.48;4202543;82;22427;-90
2022/02/01 17:04:54;;;;;;;28.60;12.37;;;;;;;0.51;82.75;98017.27;4205340;82;21083;-90
2022/02/01 17:23:37;;;;;;;26.82;14.33;;;;;;;0.12;82.86;97979.58;4180158;82;21104;-90
2022/02/01 17:29:40;;;;;;;26.12;12.00;;;;;;;0.03;82.89;97978.88;4180117;82;21554;-89
2022/02/01 17:35:41;;;;;;;31.05;13.62;;;;;;;0.06;83.25;97972.84;4189802;82;21062;-90
2022/02/01 17:41:42;;;;;;;34.38;14.35;;;;;;;0.15;83.34;97951.20;4204595;82;21600;-89
2022/02/01 17:47:49;;;;;;;35.50;15.08;;;;;;;0.19;83.40;97942.13;4192300;82;21081;-89
2022/02/01 17:54:05;;;;;;;37.55;15.32;;;;;;;0.20;83.83;97934.31;4203179;82;21044;-90
2022/02/01 17:59:56;;;;;;;34.18;16.17;;;;;;;0.21;83.82;97918.38;4229604;82;21063;-90
2022/02/01 18:05:57;;;;;;;30.75;14.70;;;;;;;0.24;83.94;97893.48;4203527;82;21079;-90
2022/02/01 18:18:12;;;;;;;33.78;14.30;;;;;;;0.34;84.23;97872.08;4198814;82;21110;-89
2022/02/01 18:24:14;;;;;;;29.65;14.65;;;;;;;0.28;83.96;97856.72;4182682;82;21345;-90
2022/02/01 18:30:20;;;;;;;25.00;11.60;;;;;;;0.14;84.09;97844.69;4163321;82;21031;-89
2022/02/01 18:36:23;;;;;;;24.27;11.80;;;;;;;0.06;84.38;97832.12;4139184;82;21098;-90
2022/02/01 18:42:38;;;;;;;22.75;10.28;;;;;;;0.10;84.41;97822.25;4201085;82;21105;-90
2022/02/01 18:48:33;;;;;;;20.43;10.08;;;;;;;0.16;84.42;97804.20;4194508;82;21073;-89
2022/02/01 18:54:51;;;;;;;21.30;10.68;;;;;;;0.28;84.18;97784.05;4210186;82;21129;-89
2022/02/01 19:07:12;;;;;;;19.35;8.75;;;;;;;0.42;84.06;97752.18;4189207;82;21110;-90
2022/02/01 19:13:05;;;;;;;14.38;7.20;;;;;;;0.59;83.98;97749.23;4195024;82;21074;-90
2022/02/01 19:19:07;;;;;;;16.20;8.40;;;;;;;0.69;83.64;97729.13;4151814;82;21092;-90
2022/02/01 19:25:13;;;;;;;18.65;7.90;;;;;;;0.64;83.87;97714.55;4106913;84;21074;-89
2022/02/01 19:31:14;;;;;;;14.23;6.22;;;;;;;0.76;83.75;97702.38;4135104;82;22442;-90
2022/02/01 19:37:16;;;;;;;13.35;5.70;;;;;;;0.76;84.02;97682.97;4189277;82;21437;-90
2022/02/01 19:43:23;;;;;;;13.48;6.35;;;;;;;0.73;83.91;97659.97;4201982;82;21054;-92
2022/02/01 19:49:24;;;;;;;14.85;5.58;;;;;;;0.80;83.72;97644.02;4076275;84;21094;-90
2022/02/01 19:55:26;;;;;;;12.85;5.80;;;;;;;0.89;83.08;97628.48;4199194;82;21070;-90
2022/02/01 20:01:38;;;;;;;14.07;6.12;;;;;;;0.97;82.50;97614.06;4176851;82;21042;-91
2022/02/01 20:07:42;;;;;;;12.73;5.50;;;;;;;1.00;82.85;97604.70;4193361;82;21060;-90
2022/02/01 20:13:45;;;;;;;12.58;5.53;;;;;;;1.06;82.60;97581.00;4193221;82;21165;-89
2022/02/01 20:19:47;;;;;;;12.93;5.83;;;;;;;1.11;81.95;97551.86;4190267;82;21070;-89
2022/02/01 20:25:49;;;;;;;10.80;3.75;;;;;;;1.13;81.74;97538.83;4095388;84;21142;-90
2022/02/01 20:31:50;;;;;;;9.38;4.53;;;;;;;1.20;81.05;97525.53;4106851;84;21082;-89
2022/02/01 20:37:53;;;;;;;7.70;3.80;;;;;;;1.21;81.80;97506.08;4191020;82;21245;-89
2022/02/01 20:43:55;;;;;;;12.88;4.12;;;;;;;1.24;81.44;97486.52;4202307;82;21159;-90
2022/02/01 20:49:56;;;;;;;9.55;3.65;;;;;;;1.23;82.13;97495.74;4166307;82;21148;-89
2022/02/01 20:56:00;;;;;;;7.00;2.87;;;;;;;1.23;82.23;97484.41;4184667;82;21058;-90
2022/02/01 21:02:01;;;;;;;9.13;3.77;;;;;;;1.16;83.00;97480.77;4099702;84;21175;-89
2022/02/01 21:08:03;;;;;;;8.55;3.45;;;;;;;1.00;83.92;97472.67;4096089;84;21122;-90
2022/02/01 21:14:05;;;;;;;8.30;3.65;;;;;;;0.88;86.01;97456.61;4160366;82;21059;-91
2022/02/01 21:20:10;;;;;;;7.72;3.35;;;;;;;0.76;86.31;97450.53;4087227;83;21095;-90
2022/02/01 21:26:11;;;;;;;14.07;4.58;;;;;;;0.61;86.88;97433.23;4092455;84;21271;-90
2022/02/01 21:32:14;;;;;;;8.25;3.10;;;;;;;0.51;87.58;97432.42;4073759;84;21736;-90
2022/02/01 21:38:15;;;;;;;11.38;4.30;;;;;;;0.45;89.92;97416.87;4218493;82;21440;-89
2022/02/01 21:44:17;;;;;;;6.65;3.60;;;;;;;0.39;91.13;97409.63;4194366;82;21637;-89
2022/02/01 21:50:18;;;;;;;5.10;3.05;;;;;;;0.30;90.25;97404.19;4178794;82;21052;-89
2022/02/01 21:56:20;;;;;;;9.25;3.27;;;;;;;0.28;90.72;97403.20;4127250;84;21043;-89
2022/02/01 22:02:22;;;;;;;7.30;2.90;;;;;;;0.26;92.33;97389.84;4177199;82;21042;-90
2022/02/01 22:08:23;;;;;;;6.20;3.00;;;;;;;0.22;93.06;97388.41;4119934;84;21598;-91
2022/02/01 22:14:25;;;;;;;8.33;3.40;;;;;;;0.17;93.16;97371.75;4090837;84;21602;-89
2022/02/01 22:20:27;;;;;;;7.92;3.50;;;;;;;0.11;92.65;97371.20;4107996;84;21063;-89
2022/02/01 22:26:29;;;;;;;6.00;2.58;;;;;;;0.10;92.69;97356.20;4199942;82;20984;-90
2022/02/01 22:32:33;;;;;;;7.33;2.92;;;;;;;0.15;93.60;97347.87;4178407;82;22220;-89
2022/02/01 22:38:34;;;;;;;5.25;2.37;;;;;;;0.17;94.86;97342.15;4203246;82;21574;-89
2022/02/01 22:44:35;;;;;;;5.33;2.52;;;;;;;0.13;94.16;97327.25;4175523;81;21109;-89
2022/02/01 22:50:37;;;;;;;5.85;1.82;;;;;;;0.06;96.11;97294.02;4117142;84;21051;-89
2022/02/01 22:56:38;;;;;;;3.35;1.62;;;;;;;0.06;96.11;97294.02;4091116;84;21151;-89
2022/02/01 23:02:41;;;;;;;3.60;1.30;;;;;;;0.19;96.30;97301.64;4203462;82;21573;-88
2022/02/01 23:21:10;;;;;;;5.00;2.33;;;;;;;0.31;95.40;97280.04;4208696;82;21066;-90
2022/02/01 23:27:12;;;;;;;6.87;2.20;;;;;;;0.34;95.92;97278.55;4179987;82;21034;-89
2022/02/01 23:33:25;;;;;;;7.12;2.42;;;;;;;0.29;95.80;97269.39;4174638;82;21003;-91
2022/02/01 23:51:31;;;;;;;5.03;2.08;;;;;;;0.31;96.33;97249.09;4093447;85;21545;-89
2022/02/01 23:57:37;;;;;;;4.53;1.32;;;;;;;0.29;96.19;97250.55;4085690;84;21149;-90
